Terminal Aerodrome Forecast
Issued by NWS Tallahassee, FL

Home | Current Version | Previous Version | Text Only | Print | Product List | Glossary On
Versions: 1 2 3 4 5 6 7 8 9 10 11 12 13 14 15 16
000
FTUS42 KTAE 281100
TAFTLH
TAF
KTLH 281130Z 2812/2912 27010KT P6SM SCT030
     FM281800 26009KT P6SM VCTS BKN050CB
     FM282200 VRB15G30KT 3SM TSRA BKN030CB
     FM290200 25008KT P6SM SCT050 BKN100=

USA.gov is the U.S. government's official web portal to all federal, state and local government web resources and services.